Adna, Washington
Current Conditions -  °F | °C
As of 8:55 AM on Saturday 25 Oct 2014 (Local Time) from KCLS Reporting Station
Few Clouds Few Clouds  
Wind Chill: 11°   Ceiling: Unl
Heat Index: 11°   Visibility: 10mi
Dew Point: 10°   Wind: 6mph
Humidity: 94%   Direction: 230°SW
Pressure: 29.49"   Gusts: NA
Location:  46.63°N, 123.06°W
Report Text: KCLS 251555Z AUTO 23005KT 10SM FEW039 FEW046 FEW060 11/10 A2949 RMK AO2
Loading
Personal Weather Stations






























Interactive Weather Map
Tropical Storm Tracking
New forecast layout! Learn more

10-Day Weather Forecast

Advertisements
Track Severe Weather on mobile